sensor_id;sensor_type;location;lat;lon;timestamp;P1;durP1;ratioP1;P2;durP2;ratioP2
50086;SDS011;35967;50.718;7.050;2022-12-18T00:09:34;28.13;;;11.83;;
50086;SDS011;35967;50.718;7.050;2022-12-18T00:19:40;32.03;;;12.00;;
50086;SDS011;35967;50.718;7.050;2022-12-18T00:29:45;27.10;;;11.00;;
50086;SDS011;35967;50.718;7.050;2022-12-18T00:39:48;25.73;;;10.63;;
50086;SDS011;35967;50.718;7.050;2022-12-18T00:49:55;27.97;;;10.93;;
50086;SDS011;35967;50.718;7.050;2022-12-18T00:59:58;31.50;;;11.37;;
50086;SDS011;35967;50.718;7.050;2022-12-18T01:10:03;27.47;;;10.33;;
50086;SDS011;35967;50.718;7.050;2022-12-18T01:20:10;39.30;;;12.87;;
50086;SDS011;35967;50.718;7.050;2022-12-18T01:30:16;38.90;;;13.07;;
50086;SDS011;35967;50.718;7.050;2022-12-18T01:40:19;34.90;;;13.30;;
50086;SDS011;35967;50.718;7.050;2022-12-18T01:50:28;32.60;;;10.73;;
50086;SDS011;35967;50.718;7.050;2022-12-18T02:00:35;30.75;;;10.32;;
50086;SDS011;35967;50.718;7.050;2022-12-18T02:10:42;29.90;;;10.83;;
50086;SDS011;35967;50.718;7.050;2022-12-18T02:20:59;27.83;;;10.47;;
50086;SDS011;35967;50.718;7.050;2022-12-18T02:31:10;30.65;;;10.23;;
50086;SDS011;35967;50.718;7.050;2022-12-18T02:41:17;25.23;;;10.60;;
50086;SDS011;35967;50.718;7.050;2022-12-18T02:51:23;27.93;;;10.53;;
50086;SDS011;35967;50.718;7.050;2022-12-18T03:01:36;26.73;;;10.47;;
50086;SDS011;35967;50.718;7.050;2022-12-18T03:11:47;26.27;;;10.80;;
50086;SDS011;35967;50.718;7.050;2022-12-18T03:22:15;30.00;;;10.83;;
50086;SDS011;35967;50.718;7.050;2022-12-18T03:32:25;32.27;;;12.13;;
50086;SDS011;35967;50.718;7.050;2022-12-18T03:42:36;23.75;;;9.57;;
50086;SDS011;35967;50.718;7.050;2022-12-18T03:52:49;38.30;;;11.87;;
50086;SDS011;35967;50.718;7.050;2022-12-18T04:02:57;28.70;;;11.67;;
50086;SDS011;35967;50.718;7.050;2022-12-18T04:13:11;29.47;;;11.10;;
50086;SDS011;35967;50.718;7.050;2022-12-18T04:23:15;34.20;;;13.60;;
50086;SDS011;35967;50.718;7.050;2022-12-18T04:33:19;34.43;;;11.93;;
50086;SDS011;35967;50.718;7.050;2022-12-18T04:43:22;29.27;;;10.90;;
50086;SDS011;35967;50.718;7.050;2022-12-18T04:53:27;34.70;;;12.90;;
50086;SDS011;35967;50.718;7.050;2022-12-18T05:03:30;37.10;;;12.63;;
50086;SDS011;35967;50.718;7.050;2022-12-18T05:13:35;30.00;;;11.80;;
50086;SDS011;35967;50.718;7.050;2022-12-18T05:23:40;38.17;;;13.83;;
50086;SDS011;35967;50.718;7.050;2022-12-18T05:33:45;35.33;;;13.17;;
50086;SDS011;35967;50.718;7.050;2022-12-18T05:43:48;39.93;;;14.47;;
50086;SDS011;35967;50.718;7.050;2022-12-18T05:53:53;39.80;;;14.57;;
50086;SDS011;35967;50.718;7.050;2022-12-18T06:03:56;41.20;;;14.13;;
50086;SDS011;35967;50.718;7.050;2022-12-18T06:14:00;36.97;;;14.10;;
50086;SDS011;35967;50.718;7.050;2022-12-18T06:24:05;35.37;;;13.77;;
50086;SDS011;35967;50.718;7.050;2022-12-18T06:34:10;38.60;;;13.53;;
50086;SDS011;35967;50.718;7.050;2022-12-18T06:44:13;36.23;;;14.53;;
50086;SDS011;35967;50.718;7.050;2022-12-18T06:54:17;39.17;;;13.33;;
50086;SDS011;35967;50.718;7.050;2022-12-18T07:04:20;37.37;;;13.63;;
50086;SDS011;35967;50.718;7.050;2022-12-18T07:14:24;34.00;;;14.10;;
50086;SDS011;35967;50.718;7.050;2022-12-18T07:24:28;37.50;;;13.27;;
50086;SDS011;35967;50.718;7.050;2022-12-18T07:34:32;34.67;;;14.47;;
50086;SDS011;35967;50.718;7.050;2022-12-18T07:44:36;36.83;;;14.17;;
50086;SDS011;35967;50.718;7.050;2022-12-18T07:54:40;36.70;;;14.20;;
50086;SDS011;35967;50.718;7.050;2022-12-18T08:04:44;35.50;;;13.97;;
50086;SDS011;35967;50.718;7.050;2022-12-18T08:14:48;40.53;;;15.00;;
50086;SDS011;35967;50.718;7.050;2022-12-18T08:24:51;44.40;;;16.70;;
50086;SDS011;35967;50.718;7.050;2022-12-18T08:34:55;36.00;;;13.57;;
50086;SDS011;35967;50.718;7.050;2022-12-18T08:44:58;31.10;;;10.60;;
50086;SDS011;35967;50.718;7.050;2022-12-18T08:55:03;32.43;;;12.50;;
50086;SDS011;35967;50.718;7.050;2022-12-18T09:05:07;36.77;;;15.17;;
50086;SDS011;35967;50.718;7.050;2022-12-18T09:15:12;36.47;;;14.80;;
50086;SDS011;35967;50.718;7.050;2022-12-18T09:26:29;39.13;;;15.50;;
50086;SDS011;35967;50.718;7.050;2022-12-18T09:37:47;31.87;;;14.40;;
50086;SDS011;35967;50.718;7.050;2022-12-18T09:47:53;33.83;;;14.10;;
50086;SDS011;35967;50.718;7.050;2022-12-18T09:58:02;38.87;;;16.33;;
50086;SDS011;35967;50.718;7.050;2022-12-18T10:08:10;26.67;;;12.90;;
50086;SDS011;35967;50.718;7.050;2022-12-18T10:28:28;33.90;;;13.27;;
50086;SDS011;35967;50.718;7.050;2022-12-18T10:38:34;38.00;;;15.13;;
50086;SDS011;35967;50.718;7.050;2022-12-18T10:48:39;29.00;;;12.50;;
50086;SDS011;35967;50.718;7.050;2022-12-18T10:58:56;31.93;;;14.43;;
50086;SDS011;35967;50.718;7.050;2022-12-18T11:09:03;29.50;;;14.27;;
50086;SDS011;35967;50.718;7.050;2022-12-18T11:29:39;30.43;;;13.13;;
50086;SDS011;35967;50.718;7.050;2022-12-18T11:39:51;36.47;;;14.57;;
50086;SDS011;35967;50.718;7.050;2022-12-18T11:50:01;32.27;;;13.57;;
50086;SDS011;35967;50.718;7.050;2022-12-18T12:00:15;35.07;;;14.87;;
50086;SDS011;35967;50.718;7.050;2022-12-18T12:10:25;30.53;;;12.73;;
50086;SDS011;35967;50.718;7.050;2022-12-18T12:20:43;46.30;;;18.07;;
50086;SDS011;35967;50.718;7.050;2022-12-18T12:30:55;30.37;;;12.53;;
50086;SDS011;35967;50.718;7.050;2022-12-18T12:41:12;33.63;;;13.90;;
50086;SDS011;35967;50.718;7.050;2022-12-18T12:51:33;33.57;;;14.27;;
50086;SDS011;35967;50.718;7.050;2022-12-18T13:01:40;45.60;;;17.60;;
50086;SDS011;35967;50.718;7.050;2022-12-18T13:12:00;32.80;;;13.30;;
50086;SDS011;35967;50.718;7.050;2022-12-18T13:22:34;40.90;;;16.23;;
50086;SDS011;35967;50.718;7.050;2022-12-18T13:32:38;32.50;;;13.87;;
50086;SDS011;35967;50.718;7.050;2022-12-18T13:42:42;42.13;;;15.93;;
50086;SDS011;35967;50.718;7.050;2022-12-18T13:53:03;43.37;;;18.17;;
50086;SDS011;35967;50.718;7.050;2022-12-18T14:03:16;40.93;;;15.77;;
50086;SDS011;35967;50.718;7.050;2022-12-18T14:13:24;28.37;;;10.93;;
50086;SDS011;35967;50.718;7.050;2022-12-18T14:23:32;40.83;;;15.17;;
50086;SDS011;35967;50.718;7.050;2022-12-18T14:33:37;48.70;;;19.80;;
50086;SDS011;35967;50.718;7.050;2022-12-18T14:43:43;42.10;;;17.87;;
50086;SDS011;35967;50.718;7.050;2022-12-18T14:53:47;43.90;;;18.70;;
50086;SDS011;35967;50.718;7.050;2022-12-18T15:03:57;42.93;;;16.67;;
50086;SDS011;35967;50.718;7.050;2022-12-18T15:24:35;45.17;;;19.00;;
50086;SDS011;35967;50.718;7.050;2022-12-18T15:34:38;46.70;;;19.33;;
50086;SDS011;35967;50.718;7.050;2022-12-18T15:44:43;48.60;;;17.30;;
50086;SDS011;35967;50.718;7.050;2022-12-18T15:54:46;51.57;;;19.17;;
50086;SDS011;35967;50.718;7.050;2022-12-18T16:05:10;46.80;;;17.52;;
50086;SDS011;35967;50.718;7.050;2022-12-18T16:15:18;38.40;;;16.53;;
50086;SDS011;35967;50.718;7.050;2022-12-18T16:25:27;53.53;;;22.17;;
50086;SDS011;35967;50.718;7.050;2022-12-18T16:35:30;46.50;;;19.33;;
50086;SDS011;35967;50.718;7.050;2022-12-18T16:45:35;53.33;;;21.13;;
50086;SDS011;35967;50.718;7.050;2022-12-18T16:55:37;43.60;;;17.30;;
50086;SDS011;35967;50.718;7.050;2022-12-18T17:05:42;48.87;;;20.67;;
50086;SDS011;35967;50.718;7.050;2022-12-18T17:15:51;69.63;;;25.10;;
50086;SDS011;35967;50.718;7.050;2022-12-18T17:25:57;56.47;;;21.50;;
50086;SDS011;35967;50.718;7.050;2022-12-18T17:36:01;53.43;;;17.80;;
50086;SDS011;35967;50.718;7.050;2022-12-18T17:46:06;56.00;;;22.63;;
50086;SDS011;35967;50.718;7.050;2022-12-18T17:56:10;59.87;;;21.03;;
50086;SDS011;35967;50.718;7.050;2022-12-18T18:06:17;58.53;;;22.70;;
50086;SDS011;35967;50.718;7.050;2022-12-18T18:16:20;65.27;;;25.87;;
50086;SDS011;35967;50.718;7.050;2022-12-18T18:26:25;56.00;;;23.40;;
50086;SDS011;35967;50.718;7.050;2022-12-18T18:36:30;62.63;;;22.57;;
50086;SDS011;35967;50.718;7.050;2022-12-18T18:46:34;62.73;;;25.93;;
50086;SDS011;35967;50.718;7.050;2022-12-18T18:56:37;69.37;;;25.77;;
50086;SDS011;35967;50.718;7.050;2022-12-18T19:07:01;58.20;;;21.47;;
50086;SDS011;35967;50.718;7.050;2022-12-18T19:17:04;58.23;;;22.43;;
50086;SDS011;35967;50.718;7.050;2022-12-18T19:27:09;64.40;;;26.57;;
50086;SDS011;35967;50.718;7.050;2022-12-18T19:37:12;66.80;;;24.37;;
50086;SDS011;35967;50.718;7.050;2022-12-18T19:47:17;68.40;;;25.93;;
50086;SDS011;35967;50.718;7.050;2022-12-18T19:57:21;67.43;;;24.97;;
50086;SDS011;35967;50.718;7.050;2022-12-18T20:07:25;69.63;;;25.17;;
50086;SDS011;35967;50.718;7.050;2022-12-18T20:17:28;61.67;;;25.63;;
50086;SDS011;35967;50.718;7.050;2022-12-18T20:27:33;60.30;;;24.37;;
50086;SDS011;35967;50.718;7.050;2022-12-18T20:37:36;64.57;;;22.37;;
50086;SDS011;35967;50.718;7.050;2022-12-18T20:47:44;62.03;;;23.40;;
50086;SDS011;35967;50.718;7.050;2022-12-18T20:57:48;62.57;;;24.63;;
50086;SDS011;35967;50.718;7.050;2022-12-18T21:07:54;63.03;;;24.97;;
50086;SDS011;35967;50.718;7.050;2022-12-18T21:17:57;58.80;;;24.07;;
50086;SDS011;35967;50.718;7.050;2022-12-18T21:28:02;59.87;;;25.10;;
50086;SDS011;35967;50.718;7.050;2022-12-18T21:38:06;57.57;;;21.90;;
50086;SDS011;35967;50.718;7.050;2022-12-18T21:48:10;63.30;;;25.17;;
50086;SDS011;35967;50.718;7.050;2022-12-18T21:58:14;67.00;;;26.37;;
50086;SDS011;35967;50.718;7.050;2022-12-18T22:08:18;69.00;;;26.30;;
50086;SDS011;35967;50.718;7.050;2022-12-18T22:18:21;60.63;;;22.43;;
50086;SDS011;35967;50.718;7.050;2022-12-18T22:28:25;64.47;;;25.87;;
50086;SDS011;35967;50.718;7.050;2022-12-18T22:38:46;68.27;;;25.97;;
50086;SDS011;35967;50.718;7.050;2022-12-18T22:48:50;61.93;;;22.63;;
50086;SDS011;35967;50.718;7.050;2022-12-18T22:58:54;69.50;;;25.77;;
50086;SDS011;35967;50.718;7.050;2022-12-18T23:09:00;66.73;;;25.27;;
50086;SDS011;35967;50.718;7.050;2022-12-18T23:19:03;60.90;;;24.63;;
50086;SDS011;35967;50.718;7.050;2022-12-18T23:29:07;57.53;;;22.80;;
50086;SDS011;35967;50.718;7.050;2022-12-18T23:39:11;65.90;;;25.67;;
50086;SDS011;35967;50.718;7.050;2022-12-18T23:49:31;68.87;;;27.27;;
50086;SDS011;35967;50.718;7.050;2022-12-18T23:59:34;66.80;;;27.50;;
